createdAt,value
2018-08-09T00:00:26.886Z,941.58
2018-08-09T00:01:35.078Z,941.56
2018-08-09T00:02:43.194Z,941.56
2018-08-09T00:03:51.196Z,941.54
2018-08-09T00:04:59.244Z,941.51
2018-08-09T00:06:07.478Z,941.53
2018-08-09T00:07:15.357Z,941.48
2018-08-09T00:08:23.444Z,941.48
2018-08-09T00:09:31.524Z,941.45
2018-08-09T00:10:39.589Z,941.43
2018-08-09T00:11:47.811Z,941.41
2018-08-09T00:12:55.726Z,941.40
2018-08-09T00:14:03.798Z,941.40
2018-08-09T00:15:11.978Z,941.41
2018-08-09T00:16:19.970Z,941.46
2018-08-09T00:17:28.060Z,941.46
2018-08-09T00:18:36.080Z,941.45
2018-08-09T00:19:44.152Z,941.48
2018-08-09T00:20:55.613Z,941.48
2018-08-09T00:22:00.451Z,941.49
2018-08-09T00:23:08.466Z,941.46
2018-08-09T00:24:16.444Z,941.43
2018-08-09T00:25:24.547Z,941.40
2018-08-09T00:26:32.587Z,941.43
2018-08-09T00:27:40.752Z,941.38
2018-08-09T00:28:48.725Z,941.38
2018-08-09T00:29:56.803Z,941.39
2018-08-09T00:31:05.021Z,941.35
2018-08-09T00:32:12.945Z,941.31
2018-08-09T00:33:21.116Z,941.33
2018-08-09T00:34:29.087Z,941.36
2018-08-09T00:35:38.807Z,941.34
2018-08-09T00:37:56.147Z,941.34
2018-08-09T00:39:04.285Z,941.36
2018-08-09T00:40:12.261Z,941.32
2018-08-09T00:41:20.336Z,941.36
2018-08-09T00:42:28.388Z,941.32
2018-08-09T00:43:36.472Z,941.33
2018-08-09T00:44:44.672Z,941.31
2018-08-09T00:45:52.871Z,941.32
2018-08-09T00:47:04.227Z,941.31
2018-08-09T00:48:08.841Z,941.33
2018-08-09T00:49:16.838Z,941.39
2018-08-09T00:50:24.982Z,941.40
2018-08-09T00:51:32.987Z,941.39
2018-08-09T00:52:41.041Z,941.39
2018-08-09T00:53:49.132Z,941.42
2018-08-09T00:54:57.191Z,941.44
2018-08-09T00:56:05.353Z,941.42
2018-08-09T00:57:13.338Z,941.40
2018-08-09T00:58:21.404Z,941.37
2018-08-09T00:59:29.463Z,941.35
2018-08-09T01:00:37.851Z,941.35
2018-08-09T01:01:45.653Z,941.33
2018-08-09T01:02:54.543Z,941.28
2018-08-09T01:04:01.911Z,941.23
2018-08-09T01:05:09.853Z,941.22
2018-08-09T01:06:18.198Z,941.22
2018-08-09T01:07:26.036Z,941.20
2018-08-09T01:08:34.324Z,941.25
2018-08-09T01:09:42.139Z,941.25
2018-08-09T01:10:50.235Z,941.26
2018-08-09T01:11:58.269Z,941.25
2018-08-09T01:13:06.416Z,941.25
2018-08-09T01:14:14.403Z,941.22
2018-08-09T01:15:22.534Z,941.24
2018-08-09T01:16:30.538Z,941.21
2018-08-09T01:17:38.705Z,941.21
2018-08-09T01:18:46.691Z,941.21
2018-08-09T01:19:58.008Z,941.20
2018-08-09T01:21:03.104Z,941.20
2018-08-09T01:22:10.921Z,941.18
2018-08-09T01:23:19.064Z,941.16
2018-08-09T01:24:27.070Z,941.09
2018-08-09T01:25:35.301Z,941.07
2018-08-09T01:26:43.465Z,941.06
2018-08-09T01:27:51.563Z,941.03
2018-08-09T01:28:59.646Z,941.02
2018-08-09T01:30:07.715Z,941.01
2018-08-09T01:31:15.666Z,941.01
2018-08-09T01:32:23.763Z,941.00
2018-08-09T01:33:32.152Z,941.01
2018-08-09T01:34:39.911Z,941.00
2018-08-09T01:35:47.965Z,940.98
2018-08-09T01:36:56.031Z,941.02
2018-08-09T01:38:04.119Z,941.02
2018-08-09T01:39:12.294Z,941.03
2018-08-09T01:40:20.372Z,940.99
2018-08-09T01:41:28.356Z,940.98
2018-08-09T01:42:36.526Z,940.98
2018-08-09T01:43:44.846Z,940.92
2018-08-09T01:44:52.663Z,940.90
2018-08-09T01:46:00.600Z,940.90
2018-08-09T01:47:08.680Z,940.87
2018-08-09T01:48:16.782Z,940.84
2018-08-09T01:49:24.933Z,940.86
2018-08-09T01:50:32.936Z,940.82
2018-08-09T01:51:40.978Z,940.78
2018-08-09T01:52:49.070Z,940.77
2018-08-09T01:53:57.144Z,940.72
2018-08-09T01:55:05.290Z,940.70
2018-08-09T01:56:13.263Z,940.67
2018-08-09T01:57:24.716Z,940.68
2018-08-09T01:58:29.392Z,940.68
2018-08-09T01:59:37.481Z,940.70
2018-08-09T02:00:45.612Z,940.73
2018-08-09T02:01:53.625Z,940.69
2018-08-09T02:03:01.736Z,940.60
2018-08-09T02:04:09.763Z,940.62
2018-08-09T02:05:18.032Z,940.57
2018-08-09T02:06:26.155Z,940.58
2018-08-09T02:07:34.172Z,940.54
2018-08-09T02:08:42.256Z,940.56
2018-08-09T02:09:50.517Z,940.54
2018-08-09T02:10:59.378Z,940.57
2018-08-09T02:12:06.672Z,940.57
2018-08-09T02:13:14.873Z,940.57
2018-08-09T02:14:22.798Z,940.55
2018-08-09T02:15:30.883Z,940.53
2018-08-09T02:16:39.038Z,940.57
2018-08-09T02:17:47.024Z,940.51
2018-08-09T02:18:55.084Z,940.55
2018-08-09T02:20:03.161Z,940.55
2018-08-09T02:21:11.235Z,940.56
2018-08-09T02:22:19.451Z,940.55
2018-08-09T02:23:27.379Z,940.55
2018-08-09T02:24:35.434Z,940.49
2018-08-09T02:25:43.517Z,940.52
2018-08-09T02:26:51.618Z,940.49
2018-08-09T02:27:59.812Z,940.51
2018-08-09T02:29:07.835Z,940.54
2018-08-09T02:30:15.792Z,940.59
2018-08-09T02:31:23.883Z,940.55
2018-08-09T02:32:32.100Z,940.59
2018-08-09T02:33:40.295Z,940.56
2018-08-09T02:34:48.078Z,940.60
2018-08-09T02:35:56.193Z,940.58
2018-08-09T02:37:04.228Z,940.54
2018-08-09T02:38:12.371Z,940.54
2018-08-09T02:39:20.634Z,940.52
2018-08-09T02:40:28.434Z,940.53
2018-08-09T02:41:36.502Z,940.54
2018-08-09T02:42:44.672Z,940.53
2018-08-09T02:43:52.738Z,940.54
2018-08-09T02:45:00.803Z,940.54
2018-08-09T02:46:08.784Z,940.57
2018-08-09T02:47:16.864Z,940.59
2018-08-09T02:48:25.148Z,940.58
2018-08-09T02:49:33.021Z,940.63
2018-08-09T02:50:41.091Z,940.62
2018-08-09T02:51:49.155Z,940.63
2018-08-09T02:52:57.463Z,940.62
2018-08-09T02:54:05.374Z,940.64
2018-08-09T02:55:13.364Z,940.58
2018-08-09T02:56:21.541Z,940.62
2018-08-09T02:57:29.592Z,940.59
2018-08-09T02:58:37.577Z,940.62
2018-08-09T02:59:45.621Z,940.63
2018-08-09T03:00:53.929Z,940.63
2018-08-09T03:02:01.769Z,940.58
2018-08-09T03:03:09.953Z,940.64
2018-08-09T03:04:18.111Z,940.62
2018-08-09T03:05:26.515Z,940.62
2018-08-09T03:06:34.252Z,940.61
2018-08-09T03:07:42.405Z,940.64
2018-08-09T03:08:50.505Z,940.64
2018-08-09T03:09:58.754Z,940.65
2018-08-09T03:11:09.943Z,940.64
2018-08-09T03:12:14.637Z,940.66
2018-08-09T03:13:22.785Z,940.66
2018-08-09T03:14:30.848Z,940.63
2018-08-09T03:15:38.844Z,940.67
2018-08-09T03:16:46.976Z,940.70
2018-08-09T03:17:55.434Z,940.67
2018-08-09T03:19:03.115Z,940.71
2018-08-09T03:20:11.272Z,940.71
2018-08-09T03:21:19.175Z,940.70
2018-08-09T03:22:27.246Z,940.66
2018-08-09T03:23:35.317Z,940.68
2018-08-09T03:24:43.399Z,940.67
2018-08-09T03:25:51.556Z,940.68
2018-08-09T03:26:59.524Z,940.72
2018-08-09T03:28:07.603Z,940.71
2018-08-09T03:29:15.735Z,940.73
2018-08-09T03:30:23.773Z,940.72
2018-08-09T03:31:31.910Z,940.74
2018-08-09T03:32:41.420Z,940.79
2018-08-09T03:33:47.957Z,940.77
2018-08-09T03:34:56.069Z,940.78
2018-08-09T03:36:04.095Z,940.75
2018-08-09T03:37:12.281Z,940.72
2018-08-09T03:38:20.330Z,940.67
2018-08-09T03:39:28.328Z,940.63
2018-08-09T03:40:36.479Z,940.60
2018-08-09T03:41:44.843Z,940.58
2018-08-09T03:42:52.616Z,940.60
2018-08-09T03:44:00.609Z,940.58
2018-08-09T03:45:08.672Z,940.59
2018-08-09T03:46:16.761Z,940.55
2018-08-09T03:47:24.866Z,940.58
2018-08-09T03:48:33.135Z,940.60
2018-08-09T03:49:40.941Z,940.63
2018-08-09T03:50:49.131Z,940.62
2018-08-09T03:51:57.294Z,940.65
2018-08-09T03:53:05.383Z,940.66
2018-08-09T03:54:13.519Z,940.68
2018-08-09T03:55:21.497Z,940.66
2018-08-09T03:56:29.634Z,940.66
2018-08-09T03:57:38.010Z,940.67
2018-08-09T03:58:45.692Z,940.70
2018-08-09T03:59:53.825Z,940.69
2018-08-09T04:01:04.140Z,940.70
2018-08-09T04:02:10.129Z,940.74
2018-08-09T04:03:18.393Z,940.73
2018-08-09T04:04:26.258Z,940.71
2018-08-09T04:05:34.373Z,940.76
2018-08-09T04:06:42.410Z,940.75
2018-08-09T04:07:50.594Z,940.74
2018-08-09T04:08:59.264Z,940.70
2018-08-09T04:10:06.686Z,940.74
2018-08-09T04:11:14.729Z,940.77
2018-08-09T04:12:23.145Z,940.77
2018-08-09T04:13:30.818Z,940.80
2018-08-09T04:14:38.894Z,940.79
2018-08-09T04:15:46.951Z,940.79
2018-08-09T04:16:55.023Z,940.81
2018-08-09T04:18:03.404Z,940.77
2018-08-09T04:19:14.767Z,940.78
2018-08-09T04:20:19.729Z,940.81
2018-08-09T04:21:27.724Z,940.82
2018-08-09T04:22:37.314Z,940.78
2018-08-09T04:23:43.940Z,940.85
2018-08-09T04:24:51.997Z,940.85
2018-08-09T04:26:00.335Z,940.85
2018-08-09T04:27:08.031Z,940.91
2018-08-09T04:28:16.623Z,940.91
2018-08-09T04:29:24.254Z,940.91
2018-08-09T04:30:32.249Z,940.94
2018-08-09T04:31:40.300Z,940.93
2018-08-09T04:32:52.039Z,940.93
2018-08-09T04:33:56.445Z,940.92
2018-08-09T04:35:05.850Z,940.90
2018-08-09T04:36:12.769Z,940.86
2018-08-09T04:37:20.858Z,940.88
2018-08-09T04:38:29.294Z,940.81
2018-08-09T04:39:37.582Z,940.82
2018-08-09T04:40:45.417Z,940.81
2018-08-09T04:41:53.117Z,940.83
2018-08-09T04:43:02.998Z,940.88
2018-08-09T04:44:09.269Z,940.89
2018-08-09T04:45:17.322Z,940.93
2018-08-09T04:46:25.631Z,940.95
2018-08-09T04:47:33.462Z,940.93
2018-08-09T04:48:41.528Z,940.92
2018-08-09T04:49:49.627Z,940.91
2018-08-09T04:50:58.058Z,940.87
2018-08-09T04:52:05.790Z,940.88
2018-08-09T04:53:13.800Z,940.89
2018-08-09T04:54:21.853Z,940.91
2018-08-09T04:55:29.929Z,940.91
2018-08-09T04:56:37.983Z,940.94
2018-08-09T04:57:46.151Z,940.94
2018-08-09T04:58:54.319Z,940.96
2018-08-09T05:00:02.412Z,940.99
2018-08-09T05:01:10.553Z,941.00
2018-08-09T05:02:18.527Z,941.00
2018-08-09T05:03:26.700Z,940.97
2018-08-09T05:04:34.669Z,940.97
2018-08-09T05:05:42.740Z,940.93
2018-08-09T05:06:50.834Z,940.91
2018-08-09T05:07:59.542Z,940.92
2018-08-09T05:09:07.109Z,940.89
2018-08-09T05:10:15.038Z,940.91
2018-08-09T05:11:23.109Z,940.88
2018-08-09T05:12:31.217Z,940.82
2018-08-09T05:13:39.659Z,940.85
2018-08-09T05:14:47.292Z,940.82
2018-08-09T05:15:55.404Z,940.81
2018-08-09T05:17:03.742Z,940.83
2018-08-09T05:18:11.807Z,940.84
2018-08-09T05:19:19.758Z,940.84
2018-08-09T05:20:27.841Z,940.83
2018-08-09T05:21:35.913Z,940.78
2018-08-09T05:22:44.071Z,940.82
2018-08-09T05:23:52.061Z,940.76
2018-08-09T05:25:00.463Z,940.78
2018-08-09T05:26:08.254Z,940.75
2018-08-09T05:27:16.311Z,940.70
2018-08-09T05:28:29.619Z,940.68
2018-08-09T05:29:32.453Z,940.67
2018-08-09T05:30:40.500Z,940.70
2018-08-09T05:31:48.537Z,940.66
2018-08-09T05:32:56.724Z,940.66
2018-08-09T05:34:05.170Z,940.68
2018-08-09T05:35:12.782Z,940.66
2018-08-09T05:36:20.825Z,940.63
2018-08-09T05:37:28.919Z,940.62
2018-08-09T05:38:36.989Z,940.60
2018-08-09T05:39:45.170Z,940.61
2018-08-09T05:40:53.124Z,940.56
2018-08-09T05:42:01.173Z,940.59
2018-08-09T05:43:09.272Z,940.60
2018-08-09T05:44:17.329Z,940.61
2018-08-09T05:45:25.471Z,940.62
2018-08-09T05:46:33.528Z,940.66
2018-08-09T05:47:41.556Z,940.66
2018-08-09T05:48:49.914Z,940.71
2018-08-09T05:49:57.896Z,940.71
2018-08-09T05:51:05.999Z,940.74
2018-08-09T05:52:14.053Z,940.75
2018-08-09T05:53:22.167Z,940.73
2018-08-09T05:54:30.186Z,940.72
2018-08-09T05:55:38.257Z,940.67
2018-08-09T05:56:47.383Z,940.66
2018-08-09T05:57:54.398Z,940.74
2018-08-09T05:59:05.878Z,940.76
2018-08-09T06:00:10.743Z,940.80
2018-08-09T06:01:18.830Z,940.80
2018-08-09T06:02:27.087Z,940.81
2018-08-09T06:03:34.991Z,940.84
2018-08-09T06:04:43.094Z,940.82
2018-08-09T06:05:51.235Z,940.85
2018-08-09T06:06:59.283Z,940.93
2018-08-09T06:08:07.375Z,940.95
2018-08-09T06:09:15.376Z,940.94
2018-08-09T06:10:23.610Z,941.00
2018-08-09T06:11:31.692Z,941.01
2018-08-09T06:12:39.809Z,941.01
2018-08-09T06:13:47.828Z,941.01
2018-08-09T06:14:55.964Z,940.98
2018-08-09T06:16:03.979Z,940.98
2018-08-09T06:17:12.032Z,940.93
2018-08-09T06:18:20.167Z,940.98
2018-08-09T06:19:28.197Z,940.99
2018-08-09T06:20:36.405Z,941.02
2018-08-09T06:21:44.332Z,940.98
2018-08-09T06:22:52.517Z,941.01
2018-08-09T06:24:00.956Z,940.95
2018-08-09T06:25:08.584Z,941.01
2018-08-09T06:26:16.662Z,941.04
2018-08-09T06:27:24.940Z,940.99
2018-08-09T06:28:33.132Z,940.99
2018-08-09T06:29:41.118Z,941.01
2018-08-09T06:30:49.149Z,941.01
2018-08-09T06:31:57.535Z,941.04
2018-08-09T06:33:05.274Z,941.11
2018-08-09T06:34:13.478Z,941.19
2018-08-09T06:35:21.724Z,941.20
2018-08-09T06:36:29.507Z,941.23
2018-08-09T06:37:37.589Z,941.27
2018-08-09T06:38:45.842Z,941.31
2018-08-09T06:39:59.408Z,941.31
2018-08-09T06:41:03.378Z,941.30
2018-08-09T06:42:11.285Z,941.37
2018-08-09T06:44:30.065Z,941.37
2018-08-09T06:45:38.221Z,941.32
2018-08-09T06:46:46.277Z,941.30
2018-08-09T06:47:54.262Z,941.27
2018-08-09T06:49:02.356Z,941.24
2018-08-09T06:50:10.408Z,941.24
2018-08-09T06:51:18.605Z,941.23
2018-08-09T06:52:26.597Z,941.17
2018-08-09T06:53:34.739Z,941.21
2018-08-09T06:55:54.836Z,941.29
2018-08-09T06:57:03.187Z,941.33
2018-08-09T06:58:11.178Z,941.32
2018-08-09T06:59:19.355Z,941.30
2018-08-09T07:00:27.780Z,941.27
2018-08-09T07:01:35.601Z,941.28
2018-08-09T07:02:43.925Z,941.25
2018-08-09T07:03:51.744Z,941.22
2018-08-09T07:04:59.825Z,941.16
2018-08-09T07:06:11.431Z,941.12
2018-08-09T07:07:15.948Z,941.10
2018-08-09T07:08:24.118Z,941.03
2018-08-09T07:09:33.184Z,941.05
2018-08-09T07:10:40.234Z,941.09
2018-08-09T07:11:48.381Z,941.05
2018-08-09T07:12:56.785Z,941.00
2018-08-09T07:14:04.420Z,941.04
2018-08-09T07:15:12.650Z,941.00
2018-08-09T07:16:20.673Z,940.99
2018-08-09T07:17:28.740Z,940.96
2018-08-09T07:18:37.093Z,940.97
2018-08-09T07:19:44.808Z,940.96
2018-08-09T07:20:52.881Z,940.97
2018-08-09T07:22:01.053Z,941.01
2018-08-09T07:23:09.027Z,941.07
2018-08-09T07:24:17.380Z,941.12
2018-08-09T07:25:25.170Z,941.38
2018-08-09T07:26:33.432Z,941.50
2018-08-09T07:27:41.344Z,941.69
2018-08-09T07:28:49.405Z,941.68
2018-08-09T07:29:58.160Z,941.51
2018-08-09T07:31:06.365Z,942.02
2018-08-09T07:32:14.520Z,941.73
2018-08-09T07:33:22.632Z,941.36
2018-08-09T07:34:30.609Z,941.61
2018-08-09T07:35:38.756Z,942.49
2018-08-09T07:36:46.737Z,943.01
2018-08-09T07:37:55.022Z,943.26
2018-08-09T07:39:02.924Z,943.56
2018-08-09T07:40:10.977Z,943.82
2018-08-09T07:41:19.442Z,943.39
2018-08-09T07:42:27.413Z,943.40
2018-08-09T07:43:35.199Z,944.05
2018-08-09T07:44:43.276Z,944.34
2018-08-09T07:45:51.364Z,944.21
2018-08-09T07:46:59.538Z,944.40
2018-08-09T07:48:07.533Z,944.45
2018-08-09T07:49:16.317Z,944.88
2018-08-09T07:50:24.308Z,945.11
2018-08-09T07:51:32.380Z,945.20
2018-08-09T07:52:41.507Z,945.29
2018-08-09T07:55:03.976Z,945.74
2018-08-09T07:56:09.151Z,945.92
2018-08-09T07:57:17.199Z,946.09
2018-08-09T07:58:25.376Z,946.00
2018-08-09T07:59:33.408Z,946.33
2018-08-09T08:00:41.476Z,946.96
2018-08-09T08:01:49.575Z,947.06
2018-08-09T08:02:57.739Z,946.87
2018-08-09T08:04:07.325Z,946.83
2018-08-09T08:05:15.394Z,946.88
2018-08-09T08:06:23.481Z,947.28
2018-08-09T08:07:31.662Z,947.50
2018-08-09T08:08:39.831Z,947.71
2018-08-09T08:09:47.750Z,948.01
2018-08-09T08:10:55.798Z,947.99
2018-08-09T08:12:03.915Z,948.30
2018-08-09T08:13:12.127Z,948.80
2018-08-09T08:14:20.120Z,949.53
2018-08-09T08:15:28.153Z,950.00
2018-08-09T08:16:36.264Z,950.46
2018-08-09T08:17:45.521Z,950.41
2018-08-09T08:18:54.694Z,950.62
2018-08-09T08:20:01.995Z,950.53
2018-08-09T08:21:09.801Z,952.28
2018-08-09T08:22:17.861Z,952.28
2018-08-09T08:23:26.116Z,952.01
2018-08-09T08:24:34.147Z,951.69
2018-08-09T08:25:42.132Z,952.16
2018-08-09T08:26:50.310Z,951.37
2018-08-09T08:27:58.339Z,949.69
2018-08-09T08:29:06.583Z,951.47
2018-08-09T08:30:20.152Z,952.95
2018-08-09T08:31:22.770Z,952.92
2018-08-09T08:32:30.854Z,952.53
2018-08-09T08:33:38.951Z,952.60
2018-08-09T08:34:47.024Z,952.69
2018-08-09T08:36:00.405Z,952.28
2018-08-09T08:37:03.216Z,952.17
2018-08-09T08:38:11.298Z,952.24
2018-08-09T08:39:19.493Z,951.59
2018-08-09T08:40:27.465Z,951.70
2018-08-09T08:41:35.921Z,952.75
2018-08-09T08:42:43.633Z,953.23
2018-08-09T08:43:51.741Z,953.19
2018-08-09T08:44:59.813Z,953.24
2018-08-09T08:46:07.891Z,953.19
2018-08-09T08:47:16.078Z,953.31
2018-08-09T08:48:24.058Z,953.37
2018-08-09T08:49:35.593Z,953.30
2018-08-09T08:50:40.251Z,952.83
2018-08-09T08:51:48.663Z,952.16
2018-08-09T08:52:56.772Z,952.64
2018-08-09T08:54:04.711Z,952.69
2018-08-09T08:55:12.950Z,952.20
2018-08-09T08:56:20.895Z,952.17
2018-08-09T08:57:29.019Z,952.04
2018-08-09T08:58:37.171Z,951.47
2018-08-09T08:59:45.146Z,950.73
2018-08-09T09:00:53.395Z,950.64
2018-08-09T09:02:01.341Z,950.73
2018-08-09T09:03:09.525Z,950.16
2018-08-09T09:04:17.624Z,949.31
2018-08-09T09:05:25.649Z,949.03
2018-08-09T09:06:33.736Z,948.87
2018-08-09T09:07:41.866Z,948.54
2018-08-09T09:08:49.873Z,948.32
2018-08-09T09:09:58.010Z,948.03
2018-08-09T09:11:06.085Z,947.04
2018-08-09T09:12:14.153Z,946.51
2018-08-09T09:13:22.306Z,945.54
2018-08-09T09:14:30.294Z,942.14
2018-08-09T09:15:38.554Z,940.77
2018-08-09T09:16:46.553Z,940.77
2018-08-09T09:17:54.651Z,940.73
2018-08-09T09:19:02.728Z,940.76
2018-08-09T09:21:21.625Z,940.71
2018-08-09T09:22:30.321Z,940.68
2018-08-09T09:24:55.992Z,940.69
2018-08-09T09:26:00.658Z,940.65
2018-08-09T09:27:08.503Z,940.58
2018-08-09T09:28:16.576Z,940.58
2018-08-09T09:29:25.004Z,940.51
2018-08-09T09:30:33.202Z,940.48
2018-08-09T09:32:51.713Z,940.43
2018-08-09T09:33:59.796Z,940.40
2018-08-09T09:35:08.052Z,940.40
2018-08-09T09:36:16.039Z,940.36
2018-08-09T09:37:24.312Z,940.39
2018-08-09T09:38:32.230Z,940.35
2018-08-09T09:39:40.198Z,940.39
2018-08-09T09:40:48.425Z,940.39
2018-08-09T09:41:56.382Z,940.37
2018-08-09T09:43:07.931Z,940.32
2018-08-09T09:44:12.597Z,940.38
2018-08-09T09:45:20.651Z,940.37
2018-08-09T09:46:28.796Z,940.31
2018-08-09T09:47:36.998Z,940.31
2018-08-09T09:48:44.869Z,940.30
2018-08-09T09:49:53.196Z,940.25
2018-08-09T09:51:01.016Z,940.27
2018-08-09T09:52:09.384Z,940.24
2018-08-09T09:53:17.384Z,940.21
2018-08-09T09:54:25.425Z,940.21
2018-08-09T09:55:33.543Z,940.16
2018-08-09T09:56:42.622Z,940.13
2018-08-09T09:57:49.814Z,940.12
2018-08-09T09:58:57.763Z,940.13
2018-08-09T10:00:05.827Z,940.13
2018-08-09T10:01:13.940Z,940.14
2018-08-09T10:02:22.050Z,940.15
2018-08-09T10:03:30.302Z,940.14
2018-08-09T10:04:38.395Z,940.16
2018-08-09T10:05:47.549Z,940.14
2018-08-09T10:06:54.573Z,940.12
2018-08-09T10:08:02.714Z,940.12
2018-08-09T10:09:10.737Z,940.16
2018-08-09T10:10:18.809Z,940.16
2018-08-09T10:11:26.873Z,940.16
2018-08-09T10:12:35.048Z,940.19
2018-08-09T10:13:43.024Z,940.14
2018-08-09T10:14:51.140Z,940.16
2018-08-09T10:15:59.421Z,940.12
2018-08-09T10:17:07.465Z,940.16
2018-08-09T10:18:15.628Z,940.16
2018-08-09T10:19:23.642Z,940.15
2018-08-09T10:20:31.709Z,940.13
2018-08-09T10:21:39.810Z,940.11
2018-08-09T10:22:47.971Z,940.08
2018-08-09T10:23:56.031Z,940.05
2018-08-09T10:25:04.032Z,940.02
2018-08-09T10:26:12.166Z,940.00
2018-08-09T10:27:20.276Z,939.96
2018-08-09T10:28:28.286Z,939.90
2018-08-09T10:29:36.427Z,939.95
2018-08-09T10:30:44.620Z,939.90
2018-08-09T10:31:52.700Z,939.88
2018-08-09T10:33:00.800Z,939.88
2018-08-09T10:34:08.927Z,939.87
2018-08-09T10:35:17.032Z,939.91
2018-08-09T10:36:25.020Z,939.91
2018-08-09T10:37:33.102Z,939.89
2018-08-09T10:38:41.155Z,939.91
2018-08-09T10:39:49.237Z,939.92
2018-08-09T10:41:00.508Z,939.86
2018-08-09T10:42:05.370Z,939.85
2018-08-09T10:43:13.653Z,939.83
2018-08-09T10:44:21.538Z,939.80
2018-08-09T10:45:29.627Z,939.78
2018-08-09T10:46:37.910Z,939.82
2018-08-09T10:47:45.745Z,939.81
2018-08-09T10:48:54.483Z,939.80
2018-08-09T10:50:02.527Z,939.84
2018-08-09T10:51:10.795Z,939.84
2018-08-09T10:52:18.980Z,939.81
2018-08-09T10:53:27.074Z,939.87
2018-08-09T10:54:35.041Z,939.85
2018-08-09T10:55:43.206Z,939.91
2018-08-09T10:56:51.212Z,939.93
2018-08-09T10:57:59.651Z,939.92
2018-08-09T10:59:07.350Z,939.91
2018-08-09T11:00:15.418Z,939.91
2018-08-09T11:01:23.532Z,939.87
2018-08-09T11:02:35.090Z,939.86
2018-08-09T11:03:40.048Z,939.82
2018-08-09T11:04:47.783Z,939.83
2018-08-09T11:05:55.823Z,939.85
2018-08-09T11:07:03.939Z,939.86
2018-08-09T11:08:12.132Z,939.89
2018-08-09T11:09:20.070Z,939.88
2018-08-09T11:10:28.157Z,939.88
2018-08-09T11:12:48.464Z,939.91
2018-08-09T11:13:56.642Z,939.94
2018-08-09T11:15:04.583Z,939.93
2018-08-09T11:16:13.377Z,939.94
2018-08-09T11:17:20.877Z,939.96
2018-08-09T11:18:29.000Z,939.96
2018-08-09T11:19:37.139Z,939.99
2018-08-09T11:20:45.109Z,939.96
2018-08-09T11:21:53.192Z,939.88
2018-08-09T11:23:01.280Z,939.89
2018-08-09T11:24:09.638Z,939.89
2018-08-09T11:25:17.676Z,939.87
2018-08-09T11:26:25.492Z,939.83
2018-08-09T11:27:33.596Z,939.80
2018-08-09T11:28:41.768Z,939.80
2018-08-09T11:29:49.750Z,939.81
2018-08-09T11:30:57.927Z,939.82
2018-08-09T11:32:05.910Z,939.80
2018-08-09T11:33:13.992Z,939.78
2018-08-09T11:34:22.071Z,939.79
2018-08-09T11:35:30.158Z,939.70
2018-08-09T11:36:38.322Z,939.74
2018-08-09T11:37:46.298Z,939.67
2018-08-09T11:38:54.387Z,939.71
2018-08-09T11:40:02.480Z,939.68
2018-08-09T11:41:10.540Z,939.63
2018-08-09T11:42:18.731Z,939.67
2018-08-09T11:43:26.712Z,939.69
2018-08-09T11:44:34.896Z,939.70
2018-08-09T11:45:43.058Z,939.70
2018-08-09T11:46:50.952Z,939.71
2018-08-09T11:48:01.691Z,939.73
2018-08-09T11:49:07.135Z,939.70
2018-08-09T11:50:18.568Z,939.76
2018-08-09T11:51:24.369Z,939.76
2018-08-09T11:52:31.461Z,939.74
2018-08-09T11:53:39.517Z,939.74
2018-08-09T11:54:47.540Z,939.74
2018-08-09T11:55:55.591Z,939.73
2018-08-09T11:57:03.813Z,939.74
2018-08-09T11:58:11.865Z,939.69
2018-08-09T11:59:19.871Z,939.70
2018-08-09T12:00:27.924Z,939.67
2018-08-09T12:01:36.056Z,939.67
2018-08-09T12:02:44.061Z,939.59
2018-08-09T12:03:52.203Z,939.61
2018-08-09T12:05:00.266Z,939.57
2018-08-09T12:06:09.953Z,939.59
2018-08-09T12:07:16.405Z,939.64
2018-08-09T12:08:24.729Z,939.67
2018-08-09T12:09:32.696Z,939.67
2018-08-09T12:10:40.639Z,939.66
2018-08-09T12:11:52.461Z,939.70
2018-08-09T12:12:57.031Z,939.71
2018-08-09T12:14:05.068Z,939.70
2018-08-09T12:15:13.331Z,939.77
2018-08-09T12:16:21.224Z,939.71
2018-08-09T12:17:29.345Z,939.62
2018-08-09T12:18:37.398Z,939.72
2018-08-09T12:19:45.488Z,939.70
2018-08-09T12:20:53.759Z,939.74
2018-08-09T12:22:01.633Z,939.71
2018-08-09T12:23:13.091Z,939.67
2018-08-09T12:24:17.973Z,939.61
2018-08-09T12:25:25.968Z,939.61
2018-08-09T12:26:34.140Z,939.64
2018-08-09T12:27:42.394Z,939.68
2018-08-09T12:28:50.304Z,939.69
2018-08-09T12:29:58.390Z,939.79
2018-08-09T12:31:06.567Z,939.78
2018-08-09T12:32:14.595Z,939.76
2018-08-09T12:33:22.637Z,939.69
2018-08-09T12:34:35.951Z,939.71
2018-08-09T12:35:38.886Z,939.66
2018-08-09T12:36:47.081Z,939.65
2018-08-09T12:37:55.059Z,939.69
2018-08-09T12:39:03.228Z,939.54
2018-08-09T12:40:11.314Z,939.54
2018-08-09T12:41:19.384Z,939.61
2018-08-09T12:42:27.781Z,939.65
2018-08-09T12:43:35.527Z,939.65
2018-08-09T12:44:43.626Z,939.69
2018-08-09T12:45:51.709Z,939.67
2018-08-09T12:46:59.806Z,939.71
2018-08-09T12:48:08.165Z,939.63
2018-08-09T12:49:16.152Z,939.68
2018-08-09T12:50:24.234Z,939.66
2018-08-09T12:52:45.314Z,939.77
2018-08-09T12:53:53.501Z,939.79
2018-08-09T12:55:01.785Z,939.88
2018-08-09T12:56:10.125Z,939.82
2018-08-09T12:57:17.936Z,939.82
2018-08-09T12:58:26.097Z,939.91
2018-08-09T12:59:34.118Z,939.90
2018-08-09T13:00:42.204Z,939.80
2018-08-09T13:01:50.268Z,939.77
2018-08-09T13:02:58.455Z,939.79
2018-08-09T13:04:06.806Z,939.81
2018-08-09T13:05:14.505Z,939.77
2018-08-09T13:06:22.620Z,939.78
2018-08-09T13:07:30.776Z,939.79
2018-08-09T13:08:38.771Z,939.74
2018-08-09T13:09:46.965Z,939.66
2018-08-09T13:10:54.966Z,939.69
2018-08-09T13:12:03.564Z,939.80
2018-08-09T13:13:11.294Z,939.82
2018-08-09T13:14:19.353Z,939.80
2018-08-09T13:15:28.630Z,939.81
2018-08-09T13:16:35.591Z,939.75
2018-08-09T13:17:43.617Z,939.80
2018-08-09T13:18:52.726Z,939.81
2018-08-09T13:19:59.764Z,939.83
2018-08-09T13:21:07.992Z,939.84
2018-08-09T13:22:15.882Z,939.74
2018-08-09T13:23:24.040Z,939.80
2018-08-09T13:24:32.187Z,939.81
2018-08-09T13:25:40.179Z,939.79
2018-08-09T13:26:48.324Z,939.79
2018-08-09T13:27:56.323Z,939.79
2018-08-09T13:29:04.403Z,939.81
2018-08-09T13:30:12.652Z,939.79
2018-08-09T13:31:20.560Z,939.74
2018-08-09T13:32:28.723Z,939.72
2018-08-09T13:33:36.754Z,939.71
2018-08-09T13:34:44.896Z,939.68
2018-08-09T13:35:52.883Z,939.74
2018-08-09T13:37:01.004Z,939.84
2018-08-09T13:38:09.186Z,939.83
2018-08-09T13:39:17.139Z,939.68
2018-08-09T13:40:25.195Z,939.83
2018-08-09T13:41:33.397Z,939.78
2018-08-09T13:42:41.449Z,939.78
2018-08-09T13:43:49.516Z,939.75
2018-08-09T13:44:57.535Z,939.72
2018-08-09T13:46:05.731Z,939.70
2018-08-09T13:47:13.742Z,939.62
2018-08-09T13:48:21.885Z,939.81
2018-08-09T13:49:29.850Z,939.80
2018-08-09T13:50:37.926Z,939.72
2018-08-09T13:51:46.268Z,939.86
2018-08-09T13:52:54.562Z,939.80
2018-08-09T13:54:02.454Z,939.84
2018-08-09T13:55:10.445Z,939.84
2018-08-09T13:56:18.531Z,939.97
2018-08-09T13:57:26.598Z,939.95
2018-08-09T13:58:38.274Z,939.95
2018-08-09T13:59:43.076Z,940.01
2018-08-09T14:00:51.077Z,940.05
2018-08-09T14:01:59.125Z,940.02
2018-08-09T14:03:10.735Z,940.09
2018-08-09T14:04:20.530Z,940.17
2018-08-09T14:05:23.492Z,940.30
2018-08-09T14:06:31.851Z,940.33
2018-08-09T14:07:39.550Z,940.35
2018-08-09T14:08:47.598Z,940.45
2018-08-09T14:09:55.669Z,940.52
2018-08-09T14:11:03.881Z,940.46
2018-08-09T14:12:11.866Z,940.48
2018-08-09T14:13:19.947Z,940.53
2018-08-09T14:14:28.012Z,940.50
2018-08-09T14:15:36.080Z,940.61
2018-08-09T14:16:44.251Z,940.63
2018-08-09T14:17:52.401Z,940.73
2018-08-09T14:19:00.336Z,940.73
2018-08-09T14:20:10.207Z,940.69